Alix, Arkansas
Current Conditions -  °F | °C
As of 10:53 AM on Monday 22 Dec 2014 (Local Time) from KFSM Reporting Station
Haze Haze  
Wind Chill: 50°   Ceiling: 500
Heat Index: 50°   Visibility: 3mi
Dew Point: 48°   Wind: 7mph
Humidity: 93%   Direction: 70°ENE
Pressure: 29.61"   Gusts: NA
Location:  35.43°N, 93.73°W
Report Text: KFSM 221653Z 07006KT 3SM BR BKN005 OVC020 10/09 A2961 RMK AO2 RAE12 SLP026 P0000 T01000089
Loading
Personal Weather Stations






























Interactive Weather Map New forecast layout! Learn more

10-Day Weather Forecast

Advertisements
Track Severe Weather on mobile